Time;durP1;ratioP1;P1;durP2;ratioP2;P2;SDS_P1;SDS_P2;PMS_P1;PMS_P2;Temp;Humidity;BMP_temperature;BMP_pressure;BME280_temperature;BME280_humidity;BME280_pressure;Samples;Min_cycle;Max_cycle;Signal;HPM_P1;HPM_P2
2023/06/25 00:01:14;;;;;;;3.95;2.05;;;;;;;22.14;59.73;100420.66;5045282;28;20485;-43
2023/06/25 00:03:41;;;;;;;4.85;2.30;;;;;;;22.09;60.41;100416.44;5042842;28;20474;-44
2023/06/25 00:06:07;;;;;;;4.25;2.20;;;;;;;22.03;60.30;100408.81;5045954;28;20049;-43
2023/06/25 00:08:34;;;;;;;5.07;2.17;;;;;;;21.99;59.89;100409.91;5045020;28;20045;-43
2023/06/25 00:11:01;;;;;;;4.05;1.88;;;;;;;21.94;59.91;100401.31;5045118;28;20099;-43
2023/06/25 00:13:27;;;;;;;4.45;1.80;;;;;;;21.88;60.06;100397.16;5046022;28;20080;-43
2023/06/25 00:15:54;;;;;;;5.53;2.22;;;;;;;21.82;60.24;100390.38;5041889;28;20045;-44
2023/06/25 00:18:20;;;;;;;3.67;2.05;;;;;;;21.76;60.47;100393.31;5044155;28;20057;-43
2023/06/25 00:20:48;;;;;;;5.00;3.58;;;;;;;21.74;60.45;100384.59;5043556;28;20578;-43
2023/06/25 00:23:16;;;;;;;3.78;2.05;;;;;;;21.70;60.59;100388.28;5042107;28;20397;-44
2023/06/25 00:25:45;;;;;;;4.68;2.45;;;;;;;21.67;60.33;100388.41;5038635;28;20041;-44
2023/06/25 00:28:14;;;;;;;5.88;2.20;;;;;;;21.64;60.56;100383.25;5043616;28;20045;-41
2023/06/25 00:30:42;;;;;;;6.50;2.70;;;;;;;21.61;60.80;100383.41;5044907;28;20052;-43
2023/06/25 00:33:10;;;;;;;5.32;2.13;;;;;;;21.57;60.78;100383.53;5040613;28;20110;-42
2023/06/25 00:38:33;;;;;;;5.20;2.90;;;;;;;21.52;60.76;100374.97;5044222;28;20418;-43
2023/06/25 00:41:01;;;;;;;4.10;2.30;;;;;;;21.50;60.71;100375.97;5028616;28;20531;-42
2023/06/25 00:43:29;;;;;;;5.97;2.70;;;;;;;21.47;61.01;100371.69;5042846;28;20063;-44
2023/06/25 00:45:58;;;;;;;4.88;2.63;;;;;;;21.44;61.27;100362.13;5040998;28;20508;-43
2023/06/25 00:48:27;;;;;;;6.90;2.70;;;;;;;21.45;60.85;100368.28;5041445;28;20041;-42
2023/06/25 00:51:00;;;;;;;;;;;;;;;21.21;61.30;100368.38;5036883;28;20516;-43
2023/06/25 00:53:34;;;;;;;4.43;2.35;;;;;;;21.35;60.74;100367.81;5040841;28;20147;-44
2023/06/25 00:56:03;;;;;;;4.32;2.70;;;;;;;21.36;60.84;100363.38;5036517;28;20049;-44
2023/06/25 00:58:37;;;;;;;7.00;2.97;;;;;;;21.35;60.92;100362.53;5042020;28;20056;-43
2023/06/25 01:01:13;;;;;;;5.57;2.38;;;;;;;21.34;60.81;100367.88;5036139;28;20054;-45
2023/06/25 01:03:46;;;;;;;5.18;2.42;;;;;;;21.31;60.68;100367.06;5040911;28;20071;-43
2023/06/25 01:06:29;;;;;;;6.90;2.67;;;;;;;21.28;61.03;100361.94;5041741;28;20052;-41
2023/06/25 01:08:59;;;;;;;4.30;2.58;;;;;;;21.26;60.95;100363.78;5043464;28;20132;-44
2023/06/25 01:11:28;;;;;;;4.95;2.72;;;;;;;21.24;60.83;100365.63;5044799;28;20061;-42
2023/06/25 01:13:55;;;;;;;5.55;2.95;;;;;;;21.22;60.79;100356.94;5038440;28;20534;-45
2023/06/25 01:16:22;;;;;;;4.72;1.98;;;;;;;21.18;60.91;100355.38;5040698;28;20060;-44
2023/06/25 01:18:50;;;;;;;3.55;1.83;;;;;;;21.13;60.99;100358.19;5037581;28;20148;-44
2023/06/25 01:21:31;;;;;;;4.85;2.42;;;;;;;21.05;60.84;100350.59;5044986;28;20409;-42
2023/06/25 01:23:58;;;;;;;4.20;2.28;;;;;;;21.01;61.26;100349.00;5038120;28;20045;-45
2023/06/25 01:26:25;;;;;;;4.25;1.95;;;;;;;20.96;61.26;100340.47;5036647;28;20408;-43
2023/06/25 01:28:55;;;;;;;6.00;2.92;;;;;;;20.91;61.21;100337.16;5038824;28;20041;-46
2023/06/25 01:31:25;;;;;;;3.85;1.95;;;;;;;20.91;61.15;100347.69;5040769;28;20049;-45
2023/06/25 01:33:52;;;;;;;4.07;2.42;;;;;;;20.86;61.06;100344.34;5032365;28;20141;-43
2023/06/25 01:36:19;;;;;;;3.05;2.20;;;;;;;;;;5041718;28;20043;-42
2023/06/25 01:38:45;;;;;;;3.60;1.95;;;;;;;20.77;61.42;100330.66;5040484;28;20045;-43
2023/06/25 01:41:12;;;;;;;4.85;2.22;;;;;;;20.73;61.24;100329.06;5027864;28;20492;-43
2023/06/25 01:43:39;;;;;;;6.38;3.60;;;;;;;20.70;61.20;100313.38;5037006;28;20649;-45
2023/06/25 01:46:06;;;;;;;3.08;1.95;;;;;;;20.64;61.68;100303.13;5035562;28;20057;-44
2023/06/25 01:48:33;;;;;;;4.30;2.75;;;;;;;20.59;61.63;100300.69;5026538;28;20133;-44
2023/06/25 01:51:00;;;;;;;5.40;2.85;;;;;;;20.50;61.47;100296.66;5024277;28;20046;-43
2023/06/25 01:53:26;;;;;;;6.50;2.67;;;;;;;20.41;61.56;100291.75;5027234;28;20119;-46
2023/06/25 01:55:53;;;;;;;7.15;2.80;;;;;;;20.37;61.62;100300.69;5023603;28;20053;-45
2023/06/25 01:58:20;;;;;;;6.03;2.38;;;;;;;20.34;61.94;100301.69;5022055;28;20049;-43
2023/06/25 02:00:47;;;;;;;4.53;2.22;;;;;;;20.32;61.79;100292.13;5025569;28;20524;-43
2023/06/25 02:03:14;;;;;;;5.78;3.10;;;;;;;20.28;61.81;100287.00;5023062;28;20046;-42
2023/06/25 02:05:41;;;;;;;3.30;1.70;;;;;;;20.28;61.74;100292.25;5026730;28;20085;-43
2023/06/25 02:08:08;;;;;;;6.93;2.83;;;;;;;20.26;61.80;100293.22;5026223;28;20057;-43
2023/06/25 02:10:35;;;;;;;5.20;2.05;;;;;;;20.23;61.68;100281.03;5018694;28;20053;-44
2023/06/25 02:13:02;;;;;;;5.15;1.98;;;;;;;20.20;61.70;100283.81;5016582;28;20053;-43
2023/06/25 02:15:29;;;;;;;5.50;2.65;;;;;;;20.16;62.02;100276.94;5022321;28;20050;-44
2023/06/25 02:17:56;;;;;;;3.20;1.92;;;;;;;20.13;61.88;100271.84;5012747;28;20038;-43
2023/06/25 02:20:23;;;;;;;3.72;1.83;;;;;;;20.09;62.03;100270.25;5020274;28;20042;-43
2023/06/25 02:22:50;;;;;;;5.72;1.92;;;;;;;20.06;61.80;100270.34;5017562;28;20048;-42
2023/06/25 02:25:16;;;;;;;4.00;2.38;;;;;;;20.00;62.10;100263.56;5044747;28;20060;-42
2023/06/25 02:27:43;;;;;;;4.57;2.50;;;;;;;19.95;61.80;100258.44;5044902;28;20061;-45
2023/06/25 02:30:10;;;;;;;4.20;1.95;;;;;;;19.91;61.84;100257.72;5037040;28;20535;-44
2023/06/25 02:32:37;;;;;;;4.18;2.03;;;;;;;19.88;61.58;100255.19;5040619;28;20053;-43
2023/06/25 02:35:05;;;;;;;10.00;2.25;;;;;;;19.85;62.00;100254.44;5039728;28;20053;-43
2023/06/25 02:37:31;;;;;;;4.15;2.08;;;;;;;19.80;62.12;100243.25;5047666;28;20124;-45
2023/06/25 02:39:58;;;;;;;5.28;2.13;;;;;;;19.74;62.24;100247.84;5047607;28;20056;-45
2023/06/25 02:42:26;;;;;;;4.40;2.22;;;;;;;19.70;61.82;100242.75;5048070;28;20045;-43
2023/06/25 02:44:52;;;;;;;4.60;2.58;;;;;;;19.64;62.40;100238.59;5045028;28;20132;-44
2023/06/25 02:47:19;;;;;;;3.67;2.10;;;;;;;19.60;62.58;100229.13;5046444;28;20076;-43
2023/06/25 02:49:46;;;;;;;5.03;2.45;;;;;;;19.56;62.61;100215.25;5045118;28;20045;-45
2023/06/25 02:52:12;;;;;;;4.60;1.92;;;;;;;19.50;62.74;100213.72;5043232;28;20095;-44
2023/06/25 02:54:39;;;;;;;3.50;2.22;;;;;;;19.42;62.59;100215.75;5044597;28;20056;-43
2023/06/25 02:57:05;;;;;;;6.38;2.03;;;;;;;19.36;62.77;100213.34;5045979;28;20057;-43
2023/06/25 02:59:32;;;;;;;4.93;2.25;;;;;;;19.30;62.71;100213.56;5043272;28;20068;-43
2023/06/25 03:01:59;;;;;;;5.03;2.42;;;;;;;19.24;63.03;100207.66;5042738;28;20057;-43
2023/06/25 03:04:25;;;;;;;5.55;2.17;;;;;;;19.23;63.22;100205.94;5045420;28;20049;-43
2023/06/25 03:06:52;;;;;;;3.88;2.08;;;;;;;19.22;63.05;100217.34;5040772;28;20071;-43
2023/06/25 03:09:19;;;;;;;6.10;2.22;;;;;;;19.22;62.90;100214.69;5041959;28;20103;-43
2023/06/25 03:11:45;;;;;;;4.93;2.05;;;;;;;19.22;62.83;100214.69;5039830;28;20052;-44
2023/06/25 03:14:13;;;;;;;4.97;2.30;;;;;;;19.22;63.13;100212.06;5043266;28;20055;-43
2023/06/25 03:17:00;;;;;;;4.47;2.35;;;;;;;19.20;62.91;100218.31;5041109;28;20131;-43
2023/06/25 03:19:26;;;;;;;4.25;3.17;;;;;;;19.17;62.78;100214.03;5045195;28;20452;-43
2023/06/25 03:21:53;;;;;;;3.28;2.22;;;;;;;19.17;62.93;100219.28;5043038;28;20046;-43
2023/06/25 03:24:20;;;;;;;4.05;2.00;;;;;;;19.13;62.99;100215.06;5044350;28;20048;-43
2023/06/25 03:26:46;;;;;;;4.22;2.30;;;;;;;19.10;63.20;100212.53;5040499;28;20144;-42
2023/06/25 03:29:13;;;;;;;3.88;2.38;;;;;;;19.06;62.87;100210.91;5043430;28;20041;-43
2023/06/25 03:31:40;;;;;;;5.43;2.33;;;;;;;18.99;63.34;100211.09;5043757;28;20060;-43
2023/06/25 03:34:06;;;;;;;3.97;2.60;;;;;;;18.97;63.40;100218.19;5041471;28;20040;-42
2023/06/25 03:36:33;;;;;;;4.25;2.53;;;;;;;18.91;63.56;100207.91;5044236;28;20472;-42
2023/06/25 03:39:00;;;;;;;4.57;1.80;;;;;;;18.87;64.11;100207.16;5043559;28;20045;-43
2023/06/25 03:41:26;;;;;;;4.10;2.30;;;;;;;18.82;64.23;100203.84;5041506;28;20078;-44
2023/06/25 03:43:53;;;;;;;4.75;2.72;;;;;;;18.71;63.71;100191.06;5042193;28;20044;-45
2023/06/25 03:46:20;;;;;;;5.80;2.25;;;;;;;18.59;64.30;100186.25;5039315;28;20065;-44
2023/06/25 03:48:47;;;;;;;4.40;1.75;;;;;;;18.49;64.09;100189.22;5042244;28;20094;-45
2023/06/25 03:51:14;;;;;;;4.00;2.38;;;;;;;18.43;64.22;100197.25;5041154;28;20049;-45
2023/06/25 03:53:40;;;;;;;3.67;2.22;;;;;;;18.41;64.47;100187.75;5040755;28;20076;-44
2023/06/25 03:56:07;;;;;;;3.92;2.35;;;;;;;18.38;64.12;100188.72;5044313;28;20150;-44
2023/06/25 03:58:34;;;;;;;5.47;1.77;;;;;;;18.36;64.39;100191.38;5040289;28;21694;-41
2023/06/25 04:01:00;;;;;;;4.88;2.25;;;;;;;18.37;64.87;100186.97;5043043;28;20052;-43
2023/06/25 04:03:27;;;;;;;4.43;1.60;;;;;;;18.37;65.14;100186.97;5043384;28;20056;-45
2023/06/25 04:05:54;;;;;;;3.72;2.08;;;;;;;18.36;64.70;100180.88;5043167;28;20045;-42
2023/06/25 04:08:20;;;;;;;3.40;1.55;;;;;;;18.35;64.61;100179.19;5044390;28;20056;-43
2023/06/25 04:10:47;;;;;;;3.92;2.03;;;;;;;18.36;64.25;100177.41;5040307;28;20142;-42
2023/06/25 04:13:14;;;;;;;4.03;2.28;;;;;;;18.36;64.65;100178.25;5041871;28;20540;-43
2023/06/25 04:15:40;;;;;;;4.72;2.10;;;;;;;18.35;64.89;100181.81;5046055;28;20061;-43
2023/06/25 04:18:07;;;;;;;4.15;1.75;;;;;;;18.35;64.44;100178.31;5043741;28;20492;-43
2023/06/25 04:20:34;;;;;;;3.72;2.78;;;;;;;18.35;64.78;100173.06;5045359;28;20476;-43
2023/06/25 04:23:00;;;;;;;3.20;1.95;;;;;;;18.33;64.65;100174.88;5044981;28;20048;-45
2023/06/25 04:25:27;;;;;;;3.25;1.55;;;;;;;18.31;64.25;100179.31;5040554;28;20049;-43
2023/06/25 04:27:55;;;;;;;3.60;2.20;;;;;;;18.30;64.12;100180.25;5045675;28;20045;-44
2023/06/25 04:30:22;;;;;;;2.88;1.65;;;;;;;18.31;64.41;100176.72;5045918;28;20060;-42
2023/06/25 04:32:49;;;;;;;4.32;1.90;;;;;;;18.33;64.59;100177.50;5045643;28;20401;-44
2023/06/25 04:35:17;;;;;;;4.50;2.22;;;;;;;18.38;64.41;100170.34;5045570;28;20095;-43
2023/06/25 04:37:44;;;;;;;4.43;2.38;;;;;;;18.40;64.79;100176.38;5044759;28;20131;-47
2023/06/25 04:40:11;;;;;;;4.82;2.33;;;;;;;18.44;64.38;100183.25;5044864;28;20215;-42
2023/06/25 04:42:38;;;;;;;6.15;2.28;;;;;;;18.47;64.65;100185.75;5045172;28;20099;-44
2023/06/25 04:45:05;;;;;;;4.53;2.13;;;;;;;18.53;64.75;100181.22;5045465;28;20496;-43
2023/06/25 04:47:32;;;;;;;3.72;2.20;;;;;;;18.59;64.58;100175.78;5045511;28;20044;-43
2023/06/25 04:49:59;;;;;;;5.03;2.10;;;;;;;18.66;64.66;100165.91;5045760;28;20123;-42
2023/06/25 04:52:25;;;;;;;3.95;1.98;;;;;;;18.72;64.82;100163.97;5045205;28;20504;-44
2023/06/25 04:54:52;;;;;;;5.00;2.42;;;;;;;18.81;64.98;100167.16;5049458;28;20041;-45
2023/06/25 04:57:19;;;;;;;3.90;2.10;;;;;;;18.89;65.05;100160.72;5042921;28;20074;-44
2023/06/25 04:59:45;;;;;;;3.78;1.67;;;;;;;18.97;64.35;100160.44;5042776;28;20045;-43
2023/06/25 05:02:12;;;;;;;5.10;2.13;;;;;;;19.08;64.63;100169.75;5041785;28;20045;-43
2023/06/25 05:04:38;;;;;;;4.43;2.58;;;;;;;19.17;64.67;100161.53;5044068;28;20056;-44
2023/06/25 05:07:05;;;;;;;4.93;4.00;;;;;;;19.27;64.25;100155.03;5043031;28;20587;-43
2023/06/25 05:09:32;;;;;;;4.07;2.30;;;;;;;19.36;64.21;100152.97;5038288;28;20045;-43
2023/06/25 05:11:59;;;;;;;3.67;2.15;;;;;;;19.43;64.02;100149.19;5042373;28;20063;-43
2023/06/25 05:14:27;;;;;;;4.32;2.00;;;;;;;19.50;64.22;100150.66;5043794;28;20041;-42
2023/06/25 05:16:53;;;;;;;3.50;1.83;;;;;;;19.55;64.13;100152.25;5043247;28;20057;-43
2023/06/25 05:19:20;;;;;;;4.55;2.58;;;;;;;19.61;64.32;100149.38;5042982;28;20049;-43
2023/06/25 05:21:47;;;;;;;3.00;1.92;;;;;;;19.68;64.13;100145.59;5042643;28;20072;-43
2023/06/25 05:24:13;;;;;;;4.03;1.42;;;;;;;19.73;63.83;100146.25;5042757;28;20174;-44
2023/06/25 05:26:40;;;;;;;3.42;1.73;;;;;;;19.80;63.95;100143.41;5046873;28;20079;-42
2023/06/25 05:29:07;;;;;;;2.97;1.52;;;;;;;19.89;63.77;100137.75;5046427;28;20045;-42
2023/06/25 05:31:33;;;;;;;3.92;1.70;;;;;;;19.99;63.52;100138.28;5048942;28;20049;-42
2023/06/25 05:34:00;;;;;;;3.95;1.50;;;;;;;20.07;63.65;100130.97;5044246;28;20178;-42
2023/06/25 05:36:28;;;;;;;2.40;1.17;;;;;;;20.16;63.20;100135.81;5047339;28;20053;-43
2023/06/25 05:38:55;;;;;;;2.75;1.55;;;;;;;20.24;63.51;100130.25;5047659;28;20119;-44
2023/06/25 05:41:22;;;;;;;3.15;2.00;;;;;;;20.35;63.28;100136.81;5048621;28;20048;-41
2023/06/25 05:43:48;;;;;;;2.65;1.40;;;;;;;20.44;62.98;100139.06;5048433;28;20064;-42
2023/06/25 05:46:15;;;;;;;4.90;1.67;;;;;;;20.50;62.49;100133.53;5050036;28;20515;-42
2023/06/25 05:48:43;;;;;;;3.25;1.88;;;;;;;20.60;62.49;100133.16;5043230;28;20049;-43
2023/06/25 05:51:10;;;;;;;4.60;1.60;;;;;;;20.70;62.24;100137.06;5046447;28;20110;-43
2023/06/25 05:53:39;;;;;;;3.38;1.95;;;;;;;20.84;62.35;100133.81;5048560;28;20052;-42
2023/06/25 05:56:06;;;;;;;2.83;1.75;;;;;;;20.95;62.44;100138.66;5026750;28;20044;-44
2023/06/25 05:58:35;;;;;;;2.80;2.03;;;;;;;21.03;62.20;100123.38;5046729;28;20033;-42
2023/06/25 06:01:02;;;;;;;2.78;1.77;;;;;;;21.11;61.64;100132.72;5039382;28;20049;-43
2023/06/25 06:03:29;;;;;;;3.22;1.38;;;;;;;21.16;61.38;100128.06;5041356;28;20091;-44
2023/06/25 06:05:57;;;;;;;2.25;1.60;;;;;;;21.24;61.25;100123.31;5042521;28;20283;-44
2023/06/25 06:08:24;;;;;;;2.13;1.45;;;;;;;21.34;61.44;100117.63;5043285;28;20060;-43
2023/06/25 06:10:51;;;;;;;3.03;1.80;;;;;;;21.45;60.64;100117.97;5044546;28;20051;-43
2023/06/25 06:13:18;;;;;;;1.92;1.15;;;;;;;21.61;60.77;100114.59;5045587;28;20060;-43
2023/06/25 06:15:44;;;;;;;2.83;1.58;;;;;;;21.77;60.15;100120.88;5046845;28;20049;-43
2023/06/25 06:18:11;;;;;;;2.47;1.25;;;;;;;21.96;60.16;100114.69;5043825;28;20171;-43
2023/06/25 06:20:38;;;;;;;2.55;1.60;;;;;;;22.11;59.77;100118.34;5043955;28;20053;-43
2023/06/25 06:23:04;;;;;;;2.25;1.13;;;;;;;22.23;59.25;100119.53;5042544;28;20544;-44
2023/06/25 06:25:31;;;;;;;1.85;1.05;;;;;;;22.37;58.55;100107.41;5046479;28;20052;-42
2023/06/25 06:27:58;;;;;;;2.47;1.35;;;;;;;22.49;58.11;100106.75;5044782;28;20051;-46
2023/06/25 06:30:24;;;;;;;2.78;1.85;;;;;;;22.64;58.69;100099.88;5044501;28;20065;-42
2023/06/25 06:32:51;;;;;;;3.33;1.60;;;;;;;22.81;58.70;100090.19;5037797;28;20056;-44
2023/06/25 06:35:19;;;;;;;2.45;1.48;;;;;;;22.98;58.16;100091.94;5040971;28;20045;-43
2023/06/25 06:37:45;;;;;;;2.83;1.30;;;;;;;23.10;57.25;100083.31;5047229;28;20044;-43
2023/06/25 06:40:12;;;;;;;2.75;1.48;;;;;;;23.27;56.40;100084.19;5046983;28;20041;-43
2023/06/25 06:42:39;;;;;;;3.08;2.60;;;;;;;23.39;56.52;100084.47;5041404;28;20556;-43
2023/06/25 06:45:06;;;;;;;2.65;1.77;;;;;;;23.51;55.33;100075.88;5044863;28;20040;-43
2023/06/25 06:47:32;;;;;;;3.03;1.65;;;;;;;23.58;54.74;100071.91;5040264;28;20045;-48
2023/06/25 06:50:00;;;;;;;3.03;1.58;;;;;;;23.69;54.75;100067.81;5046486;28;20098;-42
2023/06/25 06:52:27;;;;;;;5.85;1.50;;;;;;;23.80;54.07;100062.75;5042691;28;20459;-43
2023/06/25 06:54:54;;;;;;;2.97;1.50;;;;;;;23.94;53.48;100069.03;5044060;28;20049;-43
2023/06/25 06:57:21;;;;;;;2.35;1.38;;;;;;;24.07;53.51;100069.13;5034386;28;20055;-43
2023/06/25 06:59:47;;;;;;;2.58;1.10;;;;;;;24.22;53.21;100056.84;5045532;28;20076;-42
2023/06/25 07:02:14;;;;;;;2.58;1.52;;;;;;;24.38;52.63;100052.31;5039476;28;20055;-42
2023/06/25 07:04:40;;;;;;;3.20;2.45;;;;;;;24.53;52.53;100049.66;5040099;28;21480;-43
2023/06/25 07:07:07;;;;;;;1.67;1.02;;;;;;;24.71;52.33;100050.31;5047376;28;20049;-43
2023/06/25 07:09:35;;;;;;;2.35;1.42;;;;;;;24.88;52.65;100048.44;5041742;28;20044;-45
2023/06/25 07:12:02;;;;;;;5.38;2.30;;;;;;;25.09;51.90;100043.56;5042554;28;20653;-44
2023/06/25 07:14:28;;;;;;;2.80;1.85;;;;;;;25.14;51.05;100044.16;5040495;28;20678;-43
2023/06/25 07:16:55;;;;;;;3.35;1.58;;;;;;;25.33;51.76;100045.56;5042777;28;20095;-42
2023/06/25 07:19:22;;;;;;;3.55;1.85;;;;;;;25.55;51.28;100046.81;5046108;28;20053;-45
2023/06/25 07:21:49;;;;;;;2.60;1.73;;;;;;;25.75;50.49;100036.72;5039787;28;20060;-43
2023/06/25 07:24:15;;;;;;;2.42;1.73;;;;;;;25.97;50.31;100040.59;5043944;28;20136;-44
2023/06/25 07:26:42;;;;;;;2.63;1.58;;;;;;;26.01;49.73;100036.78;5039088;28;20048;-45
2023/06/25 07:29:08;;;;;;;2.30;1.40;;;;;;;26.11;49.83;100029.84;5038355;28;20041;-44
2023/06/25 07:31:35;;;;;;;2.97;1.40;;;;;;;26.28;49.82;100027.91;5042798;28;20110;-43
2023/06/25 07:34:02;;;;;;;2.58;1.55;;;;;;;26.43;49.81;100032.13;5041701;28;20049;-45
2023/06/25 07:36:28;;;;;;;3.30;1.65;;;;;;;26.63;50.09;100026.38;5039415;28;20491;-43
2023/06/25 07:38:58;;;;;;;3.90;1.80;;;;;;;26.76;49.22;100026.34;5046905;28;20037;-43
2023/06/25 07:41:24;;;;;;;2.25;1.60;;;;;;;26.94;49.58;100016.19;5040930;28;20102;-42
2023/06/25 07:43:51;;;;;;;3.30;1.58;;;;;;;27.09;48.39;100016.94;5039008;28;20663;-42
2023/06/25 07:46:18;;;;;;;2.53;1.60;;;;;;;27.23;48.19;100021.22;5034559;28;20050;-43
2023/06/25 07:48:44;;;;;;;3.97;2.30;;;;;;;27.32;48.10;100012.56;5043765;28;20131;-45
2023/06/25 07:51:11;;;;;;;2.92;1.40;;;;;;;27.43;47.98;100014.41;5040415;28;20045;-43
2023/06/25 07:53:37;;;;;;;4.22;3.28;;;;;;;27.55;48.42;100017.13;5044126;28;20634;-44
2023/06/25 07:56:04;;;;;;;3.72;2.53;;;;;;;27.65;48.23;100012.84;5042482;28;20060;-44
2023/06/25 07:58:33;;;;;;;3.05;1.55;;;;;;;27.91;48.21;100023.31;5044086;28;20099;-44
2023/06/25 08:01:00;;;;;;;3.53;2.53;;;;;;;28.12;46.86;100019.94;5038134;28;24504;-43
2023/06/25 08:03:26;;;;;;;3.80;1.80;;;;;;;28.18;46.55;100006.16;5037859;28;20041;-42
2023/06/25 08:05:53;;;;;;;2.83;2.10;;;;;;;28.22;47.08;99999.63;5043036;28;21166;-43
2023/06/25 08:08:20;;;;;;;2.72;1.85;;;;;;;28.34;47.25;99999.66;5039923;28;20075;-44
2023/06/25 08:10:51;;;;;;;3.08;1.92;;;;;;;28.39;46.95;99997.47;5039544;28;20052;-43
2023/06/25 08:13:18;;;;;;;3.67;2.13;;;;;;;28.58;46.38;99993.34;5037512;28;20661;-43
2023/06/25 08:15:45;;;;;;;2.72;1.98;;;;;;;28.70;46.71;99995.03;5041417;28;20124;-45
2023/06/25 08:18:12;;;;;;;2.95;2.03;;;;;;;28.78;46.53;99993.56;5033804;28;20045;-43
2023/06/25 08:20:39;;;;;;;2.80;2.10;;;;;;;28.84;46.53;99977.09;5042391;28;20057;-45
2023/06/25 08:23:05;;;;;;;2.97;1.98;;;;;;;28.92;46.13;99974.69;5044496;28;20041;-46
2023/06/25 08:25:32;;;;;;;2.00;1.17;;;;;;;29.05;45.66;99973.66;5040881;28;20053;-42
2023/06/25 08:27:59;;;;;;;3.25;2.10;;;;;;;29.17;46.28;99961.97;5043311;28;20547;-43
2023/06/25 08:30:25;;;;;;;2.95;1.83;;;;;;;29.28;45.60;99960.25;5043171;28;20053;-48
2023/06/25 08:32:52;;;;;;;2.90;1.80;;;;;;;29.34;45.63;99957.03;5041889;28;20057;-44
2023/06/25 08:35:19;;;;;;;3.78;2.20;;;;;;;29.34;45.29;99957.03;5039848;28;20098;-44
2023/06/25 08:37:45;;;;;;;3.10;2.05;;;;;;;29.33;44.51;99950.03;5044095;28;20052;-38
2023/06/25 08:40:12;;;;;;;3.50;2.10;;;;;;;29.43;44.58;99945.63;5038805;28;20045;-43
2023/06/25 08:42:41;;;;;;;3.50;2.15;;;;;;;29.43;44.98;99939.44;5044091;28;20045;-44
2023/06/25 08:45:10;;;;;;;3.58;1.88;;;;;;;29.43;44.52;99934.94;5034937;28;20139;-45
2023/06/25 08:47:39;;;;;;;3.35;2.10;;;;;;;29.43;44.25;99940.28;5038347;28;20516;-43
2023/06/25 08:50:08;;;;;;;3.55;2.53;;;;;;;29.42;44.64;99927.94;5033993;28;20052;-43
2023/06/25 08:52:35;;;;;;;3.30;2.15;;;;;;;29.42;44.42;99925.25;5042967;28;20053;-45
2023/06/25 08:55:02;;;;;;;4.15;1.98;;;;;;;29.53;44.05;99934.16;5046202;28;20049;-44
2023/06/25 08:57:29;;;;;;;3.22;2.30;;;;;;;29.41;44.41;99931.53;5042667;28;20041;-44
2023/06/25 08:59:55;;;;;;;3.42;2.13;;;;;;;29.33;44.31;99918.88;5048233;28;20053;-44
2023/06/25 09:02:22;;;;;;;5.35;2.25;;;;;;;29.35;44.24;99924.09;5048643;28;20053;-44
2023/06/25 09:04:49;;;;;;;6.32;3.30;;;;;;;29.42;44.67;99919.06;5046566;28;20403;-45
2023/06/25 09:07:19;;;;;;;4.18;2.33;;;;;;;29.50;44.13;99919.25;5045851;28;20049;-44
2023/06/25 09:09:54;;;;;;;4.95;2.38;;;;;;;29.54;44.01;99911.88;5044247;28;20125;-45
2023/06/25 09:12:24;;;;;;;3.92;1.70;;;;;;;29.60;44.80;99914.00;5048191;28;20041;-44
2023/06/25 09:14:51;;;;;;;3.30;2.00;;;;;;;29.69;44.21;99913.25;5042475;28;20416;-47
2023/06/25 09:17:21;;;;;;;3.88;2.20;;;;;;;29.73;45.07;99904.00;5049209;28;20053;-45
2023/06/25 09:19:48;;;;;;;4.30;3.38;;;;;;;29.84;44.80;99907.53;5028104;28;20042;-46
2023/06/25 09:22:15;;;;;;;4.78;2.33;;;;;;;29.78;43.17;99902.75;5046335;28;20056;-44
2023/06/25 09:24:43;;;;;;;4.43;2.97;;;;;;;29.83;44.31;99897.84;5049075;28;20045;-45
2023/06/25 09:27:10;;;;;;;4.10;3.05;;;;;;;29.89;44.27;99899.97;5048112;28;20492;-45
2023/06/25 09:29:37;;;;;;;4.40;2.67;;;;;;;29.99;44.26;99887.50;5047206;28;21260;-44
2023/06/25 09:32:08;;;;;;;3.15;2.42;;;;;;;30.15;44.75;99886.19;5047136;28;20130;-45
2023/06/25 09:34:35;;;;;;;3.42;2.47;;;;;;;30.28;43.85;99885.94;5038900;28;20045;-45
2023/06/25 09:37:04;;;;;;;4.15;2.75;;;;;;;30.41;43.19;99880.34;5048624;28;20050;-44
2023/06/25 09:39:30;;;;;;;4.53;2.70;;;;;;;30.42;43.27;99887.38;5046383;28;20504;-45
2023/06/25 09:42:00;;;;;;;5.68;2.97;;;;;;;30.38;43.01;99880.63;5048790;28;20052;-45
2023/06/25 09:44:27;;;;;;;4.30;2.92;;;;;;;30.44;43.87;99885.41;5048652;28;20045;-46
2023/06/25 09:46:59;;;;;;;8.07;3.40;;;;;;;30.50;43.49;99879.50;5047547;28;20507;-45
2023/06/25 09:49:30;;;;;;;3.67;2.33;;;;;;;30.57;43.83;99885.16;5044013;28;20594;-44
2023/06/25 09:52:09;;;;;;;4.43;2.75;;;;;;;30.57;42.50;99878.97;5047736;28;20045;-46
2023/06/25 09:54:40;;;;;;;3.92;2.63;;;;;;;30.54;43.31;99880.09;5044952;28;20435;-44
2023/06/25 09:57:09;;;;;;;4.20;2.40;;;;;;;30.48;43.48;99876.13;5047297;28;20504;-43
2023/06/25 09:59:37;;;;;;;4.07;2.72;;;;;;;30.39;43.43;99876.94;5040882;28;20052;-44
2023/06/25 10:02:06;;;;;;;4.78;2.90;;;;;;;30.35;44.04;99883.56;5044563;28;20056;-47
2023/06/25 10:04:34;;;;;;;6.13;3.97;;;;;;;30.30;44.38;99875.13;5046467;28;20040;-44
2023/06/25 10:07:03;;;;;;;4.85;3.08;;;;;;;30.30;44.10;99877.78;5048743;28;20049;-43
2023/06/25 10:09:30;;;;;;;6.10;2.80;;;;;;;30.27;44.00;99868.22;5045676;28;20045;-45
2023/06/25 10:11:57;;;;;;;5.47;3.05;;;;;;;30.31;43.40;99863.44;5048819;28;20076;-45
2023/06/25 10:14:25;;;;;;;3.65;2.25;;;;;;;30.46;43.47;99859.38;5040785;28;20053;-46
2023/06/25 10:16:56;;;;;;;4.68;3.33;;;;;;;30.68;43.85;99862.78;5045036;28;20136;-45
2023/06/25 10:19:26;;;;;;;4.85;2.80;;;;;;;30.88;43.08;99860.16;5042910;28;20056;-46
2023/06/25 10:22:05;;;;;;;4.30;2.78;;;;;;;31.01;43.08;99855.38;5046592;28;20049;-45
2023/06/25 10:24:49;;;;;;;6.20;3.63;;;;;;;31.09;42.49;99867.16;5048211;28;20106;-46
2023/06/25 10:27:31;;;;;;;4.60;2.80;;;;;;;31.15;42.17;99863.91;5046865;28;20053;-45
2023/06/25 10:29:58;;;;;;;6.13;4.03;;;;;;;31.31;42.17;99860.66;5048189;28;20462;-44
2023/06/25 10:32:27;;;;;;;6.35;3.78;;;;;;;31.47;42.43;99860.06;5047958;28;20477;-44
2023/06/25 10:35:01;;;;;;;6.05;3.00;;;;;;;31.61;42.90;99860.59;5045547;28;20068;-44
2023/06/25 10:37:33;;;;;;;4.65;3.03;;;;;;;31.59;41.96;99852.72;5047007;28;20053;-45
2023/06/25 10:40:05;;;;;;;4.45;2.38;;;;;;;31.52;41.59;99843.59;5045718;28;20471;-44
2023/06/25 10:42:32;;;;;;;7.38;2.92;;;;;;;31.45;41.82;99846.00;5047875;28;20653;-45
2023/06/25 10:44:59;;;;;;;3.67;2.60;;;;;;;31.48;41.26;99840.38;5044506;28;20048;-45
2023/06/25 10:47:26;;;;;;;4.05;2.97;;;;;;;31.50;41.31;99838.38;5043184;28;20586;-43
2023/06/25 10:49:53;;;;;;;4.80;3.05;;;;;;;31.45;41.10;99840.66;5048060;28;20048;-45
2023/06/25 10:52:20;;;;;;;4.13;3.03;;;;;;;31.43;41.63;99837.28;5047635;28;20483;-45
2023/06/25 10:54:46;;;;;;;5.10;2.97;;;;;;;31.44;41.83;99832.78;5048314;28;20068;-44
2023/06/25 10:57:15;;;;;;;5.65;2.97;;;;;;;31.53;42.25;99832.75;5047617;28;20126;-46
2023/06/25 10:59:45;;;;;;;3.75;2.58;;;;;;;31.66;41.50;99824.38;5047004;28;20049;-45
2023/06/25 11:02:15;;;;;;;6.72;2.70;;;;;;;31.87;41.87;99822.44;5044422;28;20417;-47
2023/06/25 11:04:48;;;;;;;3.58;2.53;;;;;;;31.92;41.54;99820.19;5036504;28;20057;-45
2023/06/25 11:07:15;;;;;;;5.30;2.67;;;;;;;31.88;41.31;99824.13;5046834;28;20076;-45
2023/06/25 11:09:42;;;;;;;3.42;2.72;;;;;;;31.93;40.96;99819.19;5046249;28;20044;-44
2023/06/25 11:12:09;;;;;;;5.95;2.90;;;;;;;32.10;42.01;99800.63;5044910;28;20048;-44
2023/06/25 11:14:35;;;;;;;4.82;2.70;;;;;;;32.30;41.68;99804.88;5047190;28;20136;-44
2023/06/25 11:17:02;;;;;;;4.70;2.47;;;;;;;32.34;40.65;99791.16;5047497;28;20127;-47
2023/06/25 11:19:30;;;;;;;4.47;3.15;;;;;;;32.40;41.07;99796.75;5047035;28;20056;-45
2023/06/25 11:21:57;;;;;;;4.38;3.30;;;;;;;32.30;40.46;99788.78;5046806;28;20135;-48
2023/06/25 11:24:24;;;;;;;5.07;2.83;;;;;;;32.32;40.82;99786.78;5045152;28;20067;-48
2023/06/25 11:26:57;;;;;;;5.82;3.47;;;;;;;32.41;40.45;99786.84;5044537;28;20045;-47
2023/06/25 11:29:35;;;;;;;5.30;2.55;;;;;;;32.41;40.93;99779.69;5047250;28;20049;-48
2023/06/25 11:32:05;;;;;;;6.28;2.80;;;;;;;32.40;40.55;99780.69;5043923;28;20505;-48
2023/06/25 11:34:32;;;;;;;6.90;2.90;;;;;;;32.39;40.37;99778.16;5041828;28;20440;-48